sensor_id;sensor_type;location;lat;lon;timestamp;pressure;altitude;pressure_sealevel;temperature;humidity
78409;BME280;67697;50.750;-3.270;2023-09-30T00:00:41;101919.39;;;17.47;54.83
78409;BME280;67697;50.750;-3.270;2023-09-30T00:03:06;101918.65;;;16.75;56.47
78409;BME280;67697;50.750;-3.270;2023-09-30T00:05:32;101922.46;;;17.07;57.10
78409;BME280;67697;50.750;-3.270;2023-09-30T00:07:58;101912.04;;;16.41;58.87
78409;BME280;67697;50.750;-3.270;2023-09-30T00:10:23;101908.13;;;16.27;59.39
78409;BME280;67697;50.750;-3.270;2023-09-30T00:12:49;101902.20;;;16.17;59.66
78409;BME280;67697;50.750;-3.270;2023-09-30T00:15:14;101901.60;;;16.55;58.40
78409;BME280;67697;50.750;-3.270;2023-09-30T00:17:40;101902.54;;;16.53;58.26
78409;BME280;67697;50.750;-3.270;2023-09-30T00:20:07;101904.00;;;16.66;59.28
78409;BME280;67697;50.750;-3.270;2023-09-30T00:22:31;101923.63;;;15.45;60.81
78409;BME280;67697;50.750;-3.270;2023-09-30T00:24:57;101932.93;;;16.12;60.44
78409;BME280;67697;50.750;-3.270;2023-09-30T00:27:22;101931.85;;;16.19;59.80
78409;BME280;67697;50.750;-3.270;2023-09-30T00:29:48;101935.46;;;15.94;59.34
78409;BME280;67697;50.750;-3.270;2023-09-30T00:32:13;101933.43;;;16.68;56.42
78409;BME280;67697;50.750;-3.270;2023-09-30T00:34:39;101927.90;;;16.43;57.36
78409;BME280;67697;50.750;-3.270;2023-09-30T00:37:05;101936.47;;;16.67;57.28
78409;BME280;67697;50.750;-3.270;2023-09-30T00:39:32;101945.95;;;15.50;61.16
78409;BME280;67697;50.750;-3.270;2023-09-30T00:41:56;101948.56;;;15.57;62.53
78409;BME280;67697;50.750;-3.270;2023-09-30T00:44:21;101941.05;;;15.68;62.44
78409;BME280;67697;50.750;-3.270;2023-09-30T00:46:47;101935.54;;;15.23;63.45
78409;BME280;67697;50.750;-3.270;2023-09-30T00:49:13;101928.28;;;14.80;65.47
78409;BME280;67697;50.750;-3.270;2023-09-30T00:51:38;101920.97;;;15.56;63.47
78409;BME280;67697;50.750;-3.270;2023-09-30T00:54:04;101916.12;;;15.47;62.58
78409;BME280;67697;50.750;-3.270;2023-09-30T00:56:30;101908.49;;;14.75;63.90
78409;BME280;67697;50.750;-3.270;2023-09-30T00:58:55;101907.57;;;15.35;61.60
78409;BME280;67697;50.750;-3.270;2023-09-30T01:01:21;101911.49;;;14.97;62.46
78409;BME280;67697;50.750;-3.270;2023-09-30T01:03:47;101909.87;;;15.82;59.38
78409;BME280;67697;50.750;-3.270;2023-09-30T01:06:12;101907.28;;;15.85;58.17
78409;BME280;67697;50.750;-3.270;2023-09-30T01:08:38;101910.13;;;15.44;58.44
78409;BME280;67697;50.750;-3.270;2023-09-30T01:11:03;101916.41;;;17.04;54.81
78409;BME280;67697;50.750;-3.270;2023-09-30T01:13:32;101912.92;;;16.72;55.03
78409;BME280;67697;50.750;-3.270;2023-09-30T01:15:54;101910.99;;;15.50;57.79
78409;BME280;67697;50.750;-3.270;2023-09-30T01:18:25;101906.92;;;16.36;55.79
78409;BME280;67697;50.750;-3.270;2023-09-30T01:20:46;101906.05;;;16.63;55.91
78409;BME280;67697;50.750;-3.270;2023-09-30T01:23:12;101893.89;;;15.65;57.66
78409;BME280;67697;50.750;-3.270;2023-09-30T01:25:37;101898.78;;;14.99;59.10
78409;BME280;67697;50.750;-3.270;2023-09-30T01:28:07;101903.41;;;14.87;59.18
78409;BME280;67697;50.750;-3.270;2023-09-30T01:30:28;101895.48;;;14.04;61.25
78409;BME280;67697;50.750;-3.270;2023-09-30T01:32:54;101882.11;;;15.51;57.89
78409;BME280;67697;50.750;-3.270;2023-09-30T01:35:19;101873.48;;;15.33;57.58
78409;BME280;67697;50.750;-3.270;2023-09-30T01:37:45;101872.27;;;16.11;55.04
78409;BME280;67697;50.750;-3.270;2023-09-30T01:40:11;101867.74;;;16.21;53.81
78409;BME280;67697;50.750;-3.270;2023-09-30T01:42:36;101865.03;;;15.61;56.37
78409;BME280;67697;50.750;-3.270;2023-09-30T01:45:02;101861.34;;;16.30;54.46
78409;BME280;67697;50.750;-3.270;2023-09-30T01:47:27;101864.55;;;16.62;53.18
78409;BME280;67697;50.750;-3.270;2023-09-30T01:49:53;101859.20;;;15.59;56.59
78409;BME280;67697;50.750;-3.270;2023-09-30T01:52:19;101853.49;;;16.75;52.76
78409;BME280;67697;50.750;-3.270;2023-09-30T01:54:44;101855.10;;;16.61;53.49
78409;BME280;67697;50.750;-3.270;2023-09-30T01:57:10;101847.55;;;16.76;53.64
78409;BME280;67697;50.750;-3.270;2023-09-30T01:59:35;101842.33;;;16.00;56.02
78409;BME280;67697;50.750;-3.270;2023-09-30T02:02:01;101848.93;;;16.09;56.57
78409;BME280;67697;50.750;-3.270;2023-09-30T02:04:27;101850.83;;;15.65;57.49
78409;BME280;67697;50.750;-3.270;2023-09-30T02:06:52;101855.66;;;14.84;58.73
78409;BME280;67697;50.750;-3.270;2023-09-30T02:09:18;101857.80;;;14.97;60.52
78409;BME280;67697;50.750;-3.270;2023-09-30T02:11:44;101855.41;;;15.49;57.18
78409;BME280;67697;50.750;-3.270;2023-09-30T02:14:09;101854.95;;;16.01;56.55
78409;BME280;67697;50.750;-3.270;2023-09-30T02:16:35;101848.15;;;16.43;55.43
78409;BME280;67697;50.750;-3.270;2023-09-30T02:19:01;101840.83;;;16.19;56.04
78409;BME280;67697;50.750;-3.270;2023-09-30T02:21:26;101840.74;;;15.93;56.37
78409;BME280;67697;50.750;-3.270;2023-09-30T02:23:52;101842.46;;;14.93;59.29
78409;BME280;67697;50.750;-3.270;2023-09-30T02:26:17;101854.78;;;14.33;61.94
78409;BME280;67697;50.750;-3.270;2023-09-30T02:28:43;101857.48;;;14.57;61.46
78409;BME280;67697;50.750;-3.270;2023-09-30T02:31:09;101857.13;;;16.03;56.56
78409;BME280;67697;50.750;-3.270;2023-09-30T02:33:35;101857.85;;;15.77;58.05
78409;BME280;67697;50.750;-3.270;2023-09-30T02:36:00;101862.26;;;15.47;58.60
78409;BME280;67697;50.750;-3.270;2023-09-30T02:38:25;101864.40;;;16.12;56.71
78409;BME280;67697;50.750;-3.270;2023-09-30T02:40:51;101863.40;;;16.85;54.10
78409;BME280;67697;50.750;-3.270;2023-09-30T02:43:17;101862.60;;;15.67;56.76
78409;BME280;67697;50.750;-3.270;2023-09-30T02:45:43;101866.35;;;16.67;55.14
78409;BME280;67697;50.750;-3.270;2023-09-30T02:48:08;101860.56;;;15.32;58.31
78409;BME280;67697;50.750;-3.270;2023-09-30T02:50:33;101855.72;;;16.08;57.28
78409;BME280;67697;50.750;-3.270;2023-09-30T02:52:59;101842.44;;;16.92;54.87
78409;BME280;67697;50.750;-3.270;2023-09-30T02:55:25;101830.41;;;16.59;54.84
78409;BME280;67697;50.750;-3.270;2023-09-30T02:57:50;101835.35;;;16.49;56.59
78409;BME280;67697;50.750;-3.270;2023-09-30T03:00:16;101829.87;;;16.17;57.37
78409;BME280;67697;50.750;-3.270;2023-09-30T03:02:41;101833.70;;;15.22;59.92
78409;BME280;67697;50.750;-3.270;2023-09-30T03:05:07;101835.58;;;16.17;57.90
78409;BME280;67697;50.750;-3.270;2023-09-30T03:07:32;101832.32;;;15.68;58.97
78409;BME280;67697;50.750;-3.270;2023-09-30T03:09:58;101833.90;;;16.66;56.71
78409;BME280;67697;50.750;-3.270;2023-09-30T03:12:23;101826.53;;;17.16;53.25
78409;BME280;67697;50.750;-3.270;2023-09-30T03:14:49;101823.99;;;16.71;54.41
78409;BME280;67697;50.750;-3.270;2023-09-30T03:17:15;101814.87;;;15.19;57.18
78409;BME280;67697;50.750;-3.270;2023-09-30T03:19:40;101797.33;;;16.37;55.47
78409;BME280;67697;50.750;-3.270;2023-09-30T03:22:06;101792.25;;;15.16;59.12
78409;BME280;67697;50.750;-3.270;2023-09-30T03:24:31;101795.30;;;16.71;55.09
78409;BME280;67697;50.750;-3.270;2023-09-30T03:26:57;101798.46;;;16.65;56.37
78409;BME280;67697;50.750;-3.270;2023-09-30T03:29:23;101800.44;;;14.05;62.08
78409;BME280;67697;50.750;-3.270;2023-09-30T03:31:48;101809.92;;;14.29;63.29
78409;BME280;67697;50.750;-3.270;2023-09-30T03:34:14;101809.76;;;15.52;60.43
78409;BME280;67697;50.750;-3.270;2023-09-30T03:36:39;101819.14;;;14.99;59.63
78409;BME280;67697;50.750;-3.270;2023-09-30T03:39:05;101820.94;;;15.91;56.68
78409;BME280;67697;50.750;-3.270;2023-09-30T03:41:31;101816.19;;;16.80;54.79
78409;BME280;67697;50.750;-3.270;2023-09-30T03:43:56;101816.67;;;16.62;55.94
78409;BME280;67697;50.750;-3.270;2023-09-30T03:46:22;101820.33;;;16.71;54.86
78409;BME280;67697;50.750;-3.270;2023-09-30T03:48:48;101812.46;;;16.22;57.00
78409;BME280;67697;50.750;-3.270;2023-09-30T03:51:14;101803.58;;;14.92;59.07
78409;BME280;67697;50.750;-3.270;2023-09-30T03:53:39;101800.17;;;14.81;60.57
78409;BME280;67697;50.750;-3.270;2023-09-30T03:56:04;101797.74;;;15.85;58.28
78409;BME280;67697;50.750;-3.270;2023-09-30T03:58:30;101797.07;;;15.07;59.11
78409;BME280;67697;50.750;-3.270;2023-09-30T04:00:56;101789.99;;;15.72;57.56
78409;BME280;67697;50.750;-3.270;2023-09-30T04:03:21;101783.51;;;16.76;55.02
78409;BME280;67697;50.750;-3.270;2023-09-30T04:05:47;101777.66;;;15.75;57.55
78409;BME280;67697;50.750;-3.270;2023-09-30T04:08:13;101777.37;;;15.53;58.62
78409;BME280;67697;50.750;-3.270;2023-09-30T04:10:38;101776.57;;;15.18;58.99
78409;BME280;67697;50.750;-3.270;2023-09-30T04:13:04;101780.08;;;16.13;56.08
78409;BME280;67697;50.750;-3.270;2023-09-30T04:15:30;101779.38;;;16.67;54.71
78409;BME280;67697;50.750;-3.270;2023-09-30T04:17:55;101789.60;;;15.72;56.49
78409;BME280;67697;50.750;-3.270;2023-09-30T04:20:21;101797.82;;;15.66;56.51
78409;BME280;67697;50.750;-3.270;2023-09-30T04:22:46;101797.93;;;16.54;53.61
78409;BME280;67697;50.750;-3.270;2023-09-30T04:25:12;101799.55;;;16.52;54.31
78409;BME280;67697;50.750;-3.270;2023-09-30T04:27:38;101804.28;;;15.47;57.40
78409;BME280;67697;50.750;-3.270;2023-09-30T04:30:04;101803.12;;;16.49;53.69
78409;BME280;67697;50.750;-3.270;2023-09-30T04:32:29;101787.67;;;16.33;54.05
78409;BME280;67697;50.750;-3.270;2023-09-30T04:34:54;101781.98;;;15.87;55.36
78409;BME280;67697;50.750;-3.270;2023-09-30T04:37:20;101785.63;;;16.27;54.33
78409;BME280;67697;50.750;-3.270;2023-09-30T04:39:46;101781.75;;;16.57;53.60
78409;BME280;67697;50.750;-3.270;2023-09-30T04:42:11;101781.69;;;14.40;59.31
78409;BME280;67697;50.750;-3.270;2023-09-30T04:44:37;101776.83;;;14.82;58.24
78409;BME280;67697;50.750;-3.270;2023-09-30T04:47:02;101771.93;;;14.86;58.24
78409;BME280;67697;50.750;-3.270;2023-09-30T04:49:29;101765.13;;;14.97;57.16
78409;BME280;67697;50.750;-3.270;2023-09-30T04:51:54;101767.83;;;14.92;57.76
78409;BME280;67697;50.750;-3.270;2023-09-30T04:54:19;101770.78;;;14.90;57.10
78409;BME280;67697;50.750;-3.270;2023-09-30T04:56:45;101771.30;;;14.95;56.76
78409;BME280;67697;50.750;-3.270;2023-09-30T04:59:10;101769.65;;;16.39;53.31
78409;BME280;67697;50.750;-3.270;2023-09-30T05:01:36;101770.08;;;16.25;53.41
78409;BME280;67697;50.750;-3.270;2023-09-30T05:04:02;101774.99;;;16.70;52.62
78409;BME280;67697;50.750;-3.270;2023-09-30T05:06:27;101780.41;;;16.08;53.95
78409;BME280;67697;50.750;-3.270;2023-09-30T05:08:53;101783.96;;;15.77;53.32
78409;BME280;67697;50.750;-3.270;2023-09-30T05:11:19;101783.50;;;16.20;53.43
78409;BME280;67697;50.750;-3.270;2023-09-30T05:13:44;101779.51;;;14.84;56.90
78409;BME280;67697;50.750;-3.270;2023-09-30T05:16:10;101779.09;;;14.84;58.02
78409;BME280;67697;50.750;-3.270;2023-09-30T05:18:35;101790.67;;;14.24;59.84
78409;BME280;67697;50.750;-3.270;2023-09-30T05:21:01;101786.46;;;14.85;58.54
78409;BME280;67697;50.750;-3.270;2023-09-30T05:23:27;101777.01;;;13.59;63.09
78409;BME280;67697;50.750;-3.270;2023-09-30T05:25:52;101777.17;;;13.66;64.29
78409;BME280;67697;50.750;-3.270;2023-09-30T05:28:19;101775.39;;;12.96;64.93
78409;BME280;67697;50.750;-3.270;2023-09-30T05:30:44;101769.59;;;12.94;66.07
78409;BME280;67697;50.750;-3.270;2023-09-30T05:33:09;101769.43;;;12.90;67.27
78409;BME280;67697;50.750;-3.270;2023-09-30T05:35:35;101768.59;;;13.31;67.47
78409;BME280;67697;50.750;-3.270;2023-09-30T05:38:01;101761.89;;;12.67;69.13
78409;BME280;67697;50.750;-3.270;2023-09-30T05:40:26;101766.48;;;12.46;71.48
78409;BME280;67697;50.750;-3.270;2023-09-30T05:42:53;101755.78;;;12.52;71.63
78409;BME280;67697;50.750;-3.270;2023-09-30T05:45:18;101751.12;;;12.46;71.81
78409;BME280;67697;50.750;-3.270;2023-09-30T05:47:44;101755.85;;;13.37;70.17
78409;BME280;67697;50.750;-3.270;2023-09-30T05:50:09;101774.73;;;12.27;73.98
78409;BME280;67697;50.750;-3.270;2023-09-30T05:52:35;101777.39;;;12.78;70.22
78409;BME280;67697;50.750;-3.270;2023-09-30T05:55:01;101776.37;;;13.92;66.23
78409;BME280;67697;50.750;-3.270;2023-09-30T05:57:26;101771.55;;;14.06;63.59
78409;BME280;67697;50.750;-3.270;2023-09-30T05:59:52;101764.95;;;13.39;64.14
78409;BME280;67697;50.750;-3.270;2023-09-30T06:02:17;101762.36;;;14.13;63.84
78409;BME280;67697;50.750;-3.270;2023-09-30T06:04:43;101779.05;;;12.79;66.95
78409;BME280;67697;50.750;-3.270;2023-09-30T06:07:08;101784.47;;;14.03;64.54
78409;BME280;67697;50.750;-3.270;2023-09-30T06:09:34;101781.21;;;14.79;61.21
78409;BME280;67697;50.750;-3.270;2023-09-30T06:12:00;101787.33;;;14.29;61.67
78409;BME280;67697;50.750;-3.270;2023-09-30T06:14:25;101789.93;;;13.47;64.33
78409;BME280;67697;50.750;-3.270;2023-09-30T06:16:51;101788.51;;;15.29;58.67
78409;BME280;67697;50.750;-3.270;2023-09-30T06:19:17;101793.58;;;14.55;59.25
78409;BME280;67697;50.750;-3.270;2023-09-30T06:21:42;101793.69;;;14.39;60.99
78409;BME280;67697;50.750;-3.270;2023-09-30T06:24:08;101791.95;;;14.42;61.79
78409;BME280;67697;50.750;-3.270;2023-09-30T06:26:34;101778.27;;;15.29;58.06
78409;BME280;67697;50.750;-3.270;2023-09-30T06:28:59;101783.70;;;12.47;65.83
78409;BME280;67697;50.750;-3.270;2023-09-30T06:31:25;101778.71;;;14.65;61.03
78409;BME280;67697;50.750;-3.270;2023-09-30T06:33:50;101775.22;;;15.43;59.95
78409;BME280;67697;50.750;-3.270;2023-09-30T06:36:16;101770.45;;;14.82;61.36
78409;BME280;67697;50.750;-3.270;2023-09-30T06:38:43;101768.67;;;14.99;60.91
78409;BME280;67697;50.750;-3.270;2023-09-30T06:41:08;101785.41;;;14.50;62.79
78409;BME280;67697;50.750;-3.270;2023-09-30T06:43:33;101794.85;;;15.37;59.18
78409;BME280;67697;50.750;-3.270;2023-09-30T06:45:58;101792.10;;;15.10;58.45
78409;BME280;67697;50.750;-3.270;2023-09-30T06:48:24;101806.95;;;13.82;61.79
78409;BME280;67697;50.750;-3.270;2023-09-30T06:50:50;101811.68;;;15.32;57.19
78409;BME280;67697;50.750;-3.270;2023-09-30T06:53:16;101806.75;;;16.13;55.80
78409;BME280;67697;50.750;-3.270;2023-09-30T06:55:42;101803.05;;;16.31;55.25
78409;BME280;67697;50.750;-3.270;2023-09-30T06:58:07;101805.78;;;16.10;55.52
78409;BME280;67697;50.750;-3.270;2023-09-30T07:00:32;101802.65;;;15.88;55.97
78409;BME280;67697;50.750;-3.270;2023-09-30T07:02:59;101794.67;;;15.68;56.80
78409;BME280;67697;50.750;-3.270;2023-09-30T07:05:24;101789.47;;;16.31;55.23
78409;BME280;67697;50.750;-3.270;2023-09-30T07:07:49;101774.88;;;16.07;55.80
78409;BME280;67697;50.750;-3.270;2023-09-30T07:10:15;101766.98;;;15.53;57.94
78409;BME280;67697;50.750;-3.270;2023-09-30T07:12:40;101766.52;;;15.02;60.36
78409;BME280;67697;50.750;-3.270;2023-09-30T07:15:07;101772.49;;;13.47;64.14
78409;BME280;67697;50.750;-3.270;2023-09-30T07:17:32;101763.92;;;13.82;62.65
78409;BME280;67697;50.750;-3.270;2023-09-30T07:19:57;101762.21;;;13.85;63.89
78409;BME280;67697;50.750;-3.270;2023-09-30T07:22:23;101769.57;;;13.07;66.69
78409;BME280;67697;50.750;-3.270;2023-09-30T07:24:50;101774.36;;;14.88;62.53
78409;BME280;67697;50.750;-3.270;2023-09-30T07:27:14;101782.19;;;15.13;60.90
78409;BME280;67697;50.750;-3.270;2023-09-30T07:29:40;101787.20;;;14.82;61.32
78409;BME280;67697;50.750;-3.270;2023-09-30T07:32:07;101798.94;;;15.19;61.23
78409;BME280;67697;50.750;-3.270;2023-09-30T07:34:31;101802.02;;;16.64;56.79
78409;BME280;67697;50.750;-3.270;2023-09-30T07:36:57;101799.45;;;17.04;56.77
78409;BME280;67697;50.750;-3.270;2023-09-30T07:39:22;101801.67;;;16.72;56.48
78409;BME280;67697;50.750;-3.270;2023-09-30T07:41:48;101801.10;;;17.14;57.04
78409;BME280;67697;50.750;-3.270;2023-09-30T07:44:13;101802.62;;;16.71;58.78
78409;BME280;67697;50.750;-3.270;2023-09-30T07:46:39;101806.75;;;16.56;58.58
78409;BME280;67697;50.750;-3.270;2023-09-30T07:49:04;101805.37;;;16.32;59.52
78409;BME280;67697;50.750;-3.270;2023-09-30T07:51:30;101804.96;;;15.92;60.99
78409;BME280;67697;50.750;-3.270;2023-09-30T07:53:56;101800.79;;;15.64;62.05
78409;BME280;67697;50.750;-3.270;2023-09-30T07:56:21;101791.43;;;16.98;58.10
78409;BME280;67697;50.750;-3.270;2023-09-30T07:58:47;101792.23;;;16.74;58.61
78409;BME280;67697;50.750;-3.270;2023-09-30T08:01:13;101790.43;;;16.88;58.67
78409;BME280;67697;50.750;-3.270;2023-09-30T08:03:38;101781.75;;;17.41;57.91
78409;BME280;67697;50.750;-3.270;2023-09-30T08:06:06;101799.15;;;16.34;60.43
78409;BME280;67697;50.750;-3.270;2023-09-30T08:08:29;101797.49;;;17.15;58.10
78409;BME280;67697;50.750;-3.270;2023-09-30T08:10:55;101803.52;;;17.95;56.97
78409;BME280;67697;50.750;-3.270;2023-09-30T08:13:20;101799.37;;;18.01;57.82
78409;BME280;67697;50.750;-3.270;2023-09-30T08:15:46;101797.17;;;17.71;58.29
78409;BME280;67697;50.750;-3.270;2023-09-30T08:18:12;101788.26;;;18.18;57.97
78409;BME280;67697;50.750;-3.270;2023-09-30T08:20:37;101777.45;;;18.91;54.57
78409;BME280;67697;50.750;-3.270;2023-09-30T08:23:03;101781.62;;;18.72;56.55
78409;BME280;67697;50.750;-3.270;2023-09-30T08:25:28;101792.59;;;18.42;56.40
78409;BME280;67697;50.750;-3.270;2023-09-30T08:27:53;101791.09;;;18.88;55.86
78409;BME280;67697;50.750;-3.270;2023-09-30T08:30:19;101794.94;;;18.62;58.32
78409;BME280;67697;50.750;-3.270;2023-09-30T08:32:45;101794.94;;;19.46;57.57
78409;BME280;67697;50.750;-3.270;2023-09-30T08:35:10;101791.67;;;19.37;57.31
78409;BME280;67697;50.750;-3.270;2023-09-30T08:37:36;101783.40;;;18.92;59.78
78409;BME280;67697;50.750;-3.270;2023-09-30T08:40:01;101784.17;;;19.06;60.11
78409;BME280;67697;50.750;-3.270;2023-09-30T08:42:27;101787.95;;;19.29;59.21
78409;BME280;67697;50.750;-3.270;2023-09-30T08:44:53;101785.32;;;19.31;59.70
78409;BME280;67697;50.750;-3.270;2023-09-30T08:47:18;101788.19;;;19.26;60.25
78409;BME280;67697;50.750;-3.270;2023-09-30T08:49:43;101795.82;;;17.73;66.57
78409;BME280;67697;50.750;-3.270;2023-09-30T08:52:09;101791.08;;;17.93;69.70
78409;BME280;67697;50.750;-3.270;2023-09-30T08:54:34;101785.24;;;18.03;68.94
78409;BME280;67697;50.750;-3.270;2023-09-30T08:57:01;101785.90;;;17.25;71.60
78409;BME280;67697;50.750;-3.270;2023-09-30T08:59:26;101773.06;;;17.74;70.76
78409;BME280;67697;50.750;-3.270;2023-09-30T09:01:52;101756.64;;;17.05;72.86
78409;BME280;67697;50.750;-3.270;2023-09-30T09:04:17;101731.19;;;17.82;72.50
78409;BME280;67697;50.750;-3.270;2023-09-30T09:06:42;101722.11;;;16.90;77.54
78409;BME280;67697;50.750;-3.270;2023-09-30T09:09:13;101721.97;;;15.07;85.36
78409;BME280;67697;50.750;-3.270;2023-09-30T09:11:37;101725.08;;;15.23;88.06
78409;BME280;67697;50.750;-3.270;2023-09-30T09:13:58;101734.28;;;14.42;90.61
78409;BME280;67697;50.750;-3.270;2023-09-30T09:16:24;101737.66;;;14.34;91.11
78409;BME280;67697;50.750;-3.270;2023-09-30T09:18:50;101727.38;;;14.61;91.52
78409;BME280;67697;50.750;-3.270;2023-09-30T09:21:17;101724.46;;;14.50;93.63
78409;BME280;67697;50.750;-3.270;2023-09-30T09:23:42;101724.89;;;14.17;94.89
78409;BME280;67697;50.750;-3.270;2023-09-30T09:26:06;101731.58;;;14.33;94.10
78409;BME280;67697;50.750;-3.270;2023-09-30T09:28:34;101731.70;;;14.45;93.34
78409;BME280;67697;50.750;-3.270;2023-09-30T09:30:57;101739.35;;;14.16;94.53
78409;BME280;67697;50.750;-3.270;2023-09-30T09:35:49;101745.38;;;13.96;95.29
78409;BME280;67697;50.750;-3.270;2023-09-30T09:38:14;101745.14;;;14.06;95.56
78409;BME280;67697;50.750;-3.270;2023-09-30T09:40:40;101747.59;;;13.94;95.63
78409;BME280;67697;50.750;-3.270;2023-09-30T09:43:05;101744.04;;;14.31;95.26
78409;BME280;67697;50.750;-3.270;2023-09-30T09:45:33;101738.94;;;14.00;95.49
78409;BME280;67697;50.750;-3.270;2023-09-30T09:47:58;101731.74;;;14.37;95.13
78409;BME280;67697;50.750;-3.270;2023-09-30T09:50:22;101726.84;;;14.51;94.32
78409;BME280;67697;50.750;-3.270;2023-09-30T09:52:48;101736.82;;;14.26;95.92
78409;BME280;67697;50.750;-3.270;2023-09-30T09:55:15;101741.49;;;14.47;95.28
78409;BME280;67697;50.750;-3.270;2023-09-30T09:57:40;101731.57;;;14.14;94.85
78409;BME280;67697;50.750;-3.270;2023-09-30T10:00:05;101718.17;;;14.14;95.00
78409;BME280;67697;50.750;-3.270;2023-09-30T10:02:29;101705.78;;;14.16;94.68
78409;BME280;67697;50.750;-3.270;2023-09-30T10:04:56;101712.73;;;13.97;96.70
78409;BME280;67697;50.750;-3.270;2023-09-30T10:07:25;101707.12;;;14.71;94.35
78409;BME280;67697;50.750;-3.270;2023-09-30T10:09:47;101710.53;;;14.94;94.00
78409;BME280;67697;50.750;-3.270;2023-09-30T10:12:13;101703.24;;;14.49;93.52
78409;BME280;67697;50.750;-3.270;2023-09-30T10:14:37;101699.76;;;14.15;95.61
78409;BME280;67697;50.750;-3.270;2023-09-30T10:17:03;101702.65;;;14.19;96.23
78409;BME280;67697;50.750;-3.270;2023-09-30T10:19:28;101690.82;;;14.52;95.21
78409;BME280;67697;50.750;-3.270;2023-09-30T10:24:28;101688.85;;;14.71;93.28
78409;BME280;67697;50.750;-3.270;2023-09-30T10:26:45;101676.79;;;14.76;91.99
78409;BME280;67697;50.750;-3.270;2023-09-30T10:29:11;101686.65;;;14.72;93.02
78409;BME280;67697;50.750;-3.270;2023-09-30T10:36:28;101694.94;;;14.48;92.04
78409;BME280;67697;50.750;-3.270;2023-09-30T10:38:53;101700.05;;;14.58;92.42
78409;BME280;67697;50.750;-3.270;2023-09-30T10:43:44;101703.50;;;14.81;93.52
78409;BME280;67697;50.750;-3.270;2023-09-30T10:48:37;101706.39;;;14.93;92.84
78409;BME280;67697;50.750;-3.270;2023-09-30T10:51:01;101703.32;;;15.26;90.90
78409;BME280;67697;50.750;-3.270;2023-09-30T10:53:26;101699.93;;;15.75;92.58
78409;BME280;67697;50.750;-3.270;2023-09-30T10:55:55;101696.68;;;15.68;92.87
78409;BME280;67697;50.750;-3.270;2023-09-30T10:58:17;101691.55;;;16.23;88.76
78409;BME280;67697;50.750;-3.270;2023-09-30T11:00:53;101686.05;;;15.93;89.02
78409;BME280;67697;50.750;-3.270;2023-09-30T11:03:11;101682.60;;;16.63;87.93
78409;BME280;67697;50.750;-3.270;2023-09-30T11:05:34;101681.26;;;16.57;87.33
78409;BME280;67697;50.750;-3.270;2023-09-30T11:08:01;101684.34;;;16.32;89.34
78409;BME280;67697;50.750;-3.270;2023-09-30T11:10:25;101678.05;;;16.45;87.93
78409;BME280;67697;50.750;-3.270;2023-09-30T11:12:55;101682.08;;;16.38;88.22
78409;BME280;67697;50.750;-3.270;2023-09-30T11:15:16;101678.43;;;16.34;87.30
78409;BME280;67697;50.750;-3.270;2023-09-30T11:17:41;101673.56;;;16.64;87.28
78409;BME280;67697;50.750;-3.270;2023-09-30T11:20:08;101672.39;;;17.15;89.48
78409;BME280;67697;50.750;-3.270;2023-09-30T11:22:32;101666.23;;;17.00;85.82
78409;BME280;67697;50.750;-3.270;2023-09-30T11:24:58;101665.55;;;16.57;89.08
78409;BME280;67697;50.750;-3.270;2023-09-30T11:27:23;101664.07;;;16.71;88.09
78409;BME280;67697;50.750;-3.270;2023-09-30T11:29:49;101662.79;;;16.47;89.57
78409;BME280;67697;50.750;-3.270;2023-09-30T11:32:23;101662.93;;;16.10;89.65
78409;BME280;67697;50.750;-3.270;2023-09-30T11:34:40;101653.66;;;16.19;89.75
78409;BME280;67697;50.750;-3.270;2023-09-30T11:37:06;101647.51;;;15.99;89.42
78409;BME280;67697;50.750;-3.270;2023-09-30T11:39:31;101659.19;;;15.92;90.01
78409;BME280;67697;50.750;-3.270;2023-09-30T11:41:57;101660.49;;;16.00;90.07
78409;BME280;67697;50.750;-3.270;2023-09-30T11:44:23;101669.34;;;16.02;91.93
78409;BME280;67697;50.750;-3.270;2023-09-30T11:46:50;101665.98;;;16.26;89.87
78409;BME280;67697;50.750;-3.270;2023-09-30T11:49:13;101655.37;;;15.91;90.49
78409;BME280;67697;50.750;-3.270;2023-09-30T11:51:43;101656.22;;;15.61;90.19
78409;BME280;67697;50.750;-3.270;2023-09-30T11:54:04;101655.07;;;15.18;95.00
78409;BME280;67697;50.750;-3.270;2023-09-30T11:56:30;101658.04;;;15.77;95.61
78409;BME280;67697;50.750;-3.270;2023-09-30T11:58:56;101647.40;;;15.57;93.67
78409;BME280;67697;50.750;-3.270;2023-09-30T12:01:21;101647.90;;;15.16;95.11
78409;BME280;67697;50.750;-3.270;2023-09-30T12:03:46;101649.09;;;15.24;95.81
78409;BME280;67697;50.750;-3.270;2023-09-30T12:06:13;101645.66;;;15.40;97.71
78409;BME280;67697;50.750;-3.270;2023-09-30T12:08:37;101634.19;;;15.85;93.51
78409;BME280;67697;50.750;-3.270;2023-09-30T12:11:03;101630.95;;;15.73;91.86
78409;BME280;67697;50.750;-3.270;2023-09-30T12:13:28;101623.37;;;15.89;90.04
78409;BME280;67697;50.750;-3.270;2023-09-30T12:15:54;101628.60;;;15.68;89.98
78409;BME280;67697;50.750;-3.270;2023-09-30T12:18:20;101637.76;;;15.87;92.43
78409;BME280;67697;50.750;-3.270;2023-09-30T12:20:45;101635.64;;;15.33;93.64
78409;BME280;67697;50.750;-3.270;2023-09-30T12:23:11;101641.25;;;15.06;95.20
78409;BME280;67697;50.750;-3.270;2023-09-30T12:25:36;101644.34;;;15.21;95.37
78409;BME280;67697;50.750;-3.270;2023-09-30T12:28:02;101633.39;;;15.35;94.21
78409;BME280;67697;50.750;-3.270;2023-09-30T12:30:27;101629.53;;;15.32;95.34
78409;BME280;67697;50.750;-3.270;2023-09-30T12:32:53;101636.60;;;15.19;96.15
78409;BME280;67697;50.750;-3.270;2023-09-30T12:35:19;101635.26;;;15.38;95.63
78409;BME280;67697;50.750;-3.270;2023-09-30T12:37:44;101623.36;;;15.83;96.22
78409;BME280;67697;50.750;-3.270;2023-09-30T12:40:10;101622.03;;;15.43;95.75
78409;BME280;67697;50.750;-3.270;2023-09-30T12:42:34;101615.26;;;15.42;96.06
78409;BME280;67697;50.750;-3.270;2023-09-30T12:45:00;101613.55;;;15.56;97.00